createdAt,value
2022-12-09T00:00:42.640Z,67.54
2022-12-09T00:03:09.343Z,67.78
2022-12-09T00:05:39.259Z,67.88
2022-12-09T00:08:05.798Z,67.90
2022-12-09T00:10:32.453Z,68.04
2022-12-09T00:12:58.963Z,68.00
2022-12-09T00:15:25.341Z,67.99
2022-12-09T00:17:51.884Z,67.93
2022-12-09T00:20:18.449Z,67.97
2022-12-09T00:22:44.983Z,67.87
2022-12-09T00:25:11.296Z,67.77
2022-12-09T00:27:37.804Z,67.58
2022-12-09T00:30:05.260Z,67.50
2022-12-09T00:32:32.289Z,67.42
2022-12-09T00:34:58.859Z,68.01
2022-12-09T00:37:25.467Z,67.92
2022-12-09T00:39:51.957Z,67.93
2022-12-09T00:42:18.345Z,68.01
2022-12-09T00:44:44.745Z,68.14
2022-12-09T00:47:11.113Z,68.30
2022-12-09T00:49:37.630Z,68.34
2022-12-09T00:52:04.209Z,68.34
2022-12-09T00:54:30.822Z,68.66
2022-12-09T00:56:57.530Z,68.72
2022-12-09T00:59:24.079Z,68.76
2022-12-09T01:01:50.706Z,68.56
2022-12-09T01:04:17.489Z,68.54
2022-12-09T01:06:44.226Z,68.66
2022-12-09T01:09:10.887Z,68.43
2022-12-09T01:11:37.370Z,68.33
2022-12-09T01:14:04.160Z,68.21
2022-12-09T01:16:33.656Z,67.99
2022-12-09T01:19:03.679Z,68.02
2022-12-09T01:21:30.658Z,67.85
2022-12-09T01:23:57.489Z,67.59
2022-12-09T01:26:24.255Z,67.28
2022-12-09T01:28:52.855Z,67.50
2022-12-09T01:31:22.499Z,67.56
2022-12-09T01:33:49.893Z,67.31
2022-12-09T01:36:19.173Z,67.36
2022-12-09T01:38:46.642Z,67.27
2022-12-09T01:41:14.927Z,67.60
2022-12-09T01:43:42.085Z,67.83
2022-12-09T01:46:09.131Z,67.82
2022-12-09T01:48:42.392Z,67.89
2022-12-09T01:51:15.722Z,67.95
2022-12-09T01:53:45.237Z,67.27
2022-12-09T01:56:27.205Z,67.96
2022-12-09T01:58:54.987Z,67.74
2022-12-09T02:01:22.398Z,67.72
2022-12-09T02:03:49.797Z,67.56
2022-12-09T02:06:16.909Z,67.28
2022-12-09T02:08:45.018Z,67.73
2022-12-09T02:11:29.522Z,68.11
2022-12-09T02:14:15.838Z,67.89
2022-12-09T02:17:05.899Z,68.30
2022-12-09T02:20:01.452Z,68.47
2022-12-09T02:23:01.376Z,68.51
2022-12-09T02:25:50.354Z,68.73
2022-12-09T02:28:17.125Z,68.18
2022-12-09T02:31:22.544Z,68.67
2022-12-09T02:34:06.068Z,68.36
2022-12-09T02:36:54.489Z,68.50
2022-12-09T02:39:28.414Z,68.64
2022-12-09T02:41:58.368Z,68.56
2022-12-09T02:44:26.958Z,68.67
2022-12-09T02:46:55.402Z,68.65
2022-12-09T02:49:24.110Z,68.90
2022-12-09T02:51:51.530Z,68.46
2022-12-09T02:54:19.919Z,68.77
2022-12-09T02:56:54.108Z,68.64
2022-12-09T02:59:21.252Z,68.62
2022-12-09T03:02:28.256Z,68.56
2022-12-09T03:05:10.234Z,68.35
2022-12-09T03:08:02.103Z,67.94
2022-12-09T03:10:52.388Z,67.92
2022-12-09T03:13:37.759Z,68.26
2022-12-09T03:16:43.420Z,68.27
2022-12-09T03:19:18.534Z,67.94
2022-12-09T03:21:48.028Z,67.70
2022-12-09T03:24:20.681Z,67.70
2022-12-09T03:26:48.732Z,67.65
2022-12-09T03:29:21.963Z,67.61
2022-12-09T03:31:50.882Z,67.50
2022-12-09T03:34:22.749Z,67.48
2022-12-09T03:36:52.049Z,67.34
2022-12-09T03:39:24.100Z,67.38
2022-12-09T03:41:57.694Z,67.52
2022-12-09T03:44:34.892Z,67.45
2022-12-09T03:47:03.332Z,67.77
2022-12-09T03:49:30.217Z,67.60
2022-12-09T03:52:18.941Z,67.52
2022-12-09T03:54:47.919Z,67.57
2022-12-09T03:57:18.976Z,67.56
2022-12-09T04:00:01.519Z,67.54
2022-12-09T04:02:29.336Z,67.08
2022-12-09T04:04:56.265Z,67.05
2022-12-09T04:07:22.999Z,66.91
2022-12-09T04:09:49.908Z,66.94
2022-12-09T04:12:16.864Z,66.89
2022-12-09T04:14:43.437Z,66.68
2022-12-09T04:17:11.400Z,66.74
2022-12-09T04:19:38.194Z,66.52
2022-12-09T04:22:04.821Z,66.62
2022-12-09T04:24:31.343Z,66.53
2022-12-09T04:26:58.077Z,66.44
2022-12-09T04:29:24.571Z,66.55
2022-12-09T04:31:51.190Z,66.39
2022-12-09T04:34:18.085Z,66.94
2022-12-09T04:36:44.950Z,66.98
2022-12-09T04:39:11.947Z,67.13
2022-12-09T04:41:38.896Z,67.20
2022-12-09T04:44:05.927Z,67.40
2022-12-09T04:46:33.090Z,67.30
2022-12-09T04:48:59.926Z,67.23
2022-12-09T04:51:26.852Z,67.25
2022-12-09T04:53:53.841Z,67.08
2022-12-09T04:56:22.345Z,66.83
2022-12-09T04:58:50.738Z,66.77
2022-12-09T05:01:24.790Z,66.87
2022-12-09T05:03:54.971Z,66.76
2022-12-09T05:06:22.258Z,66.67
2022-12-09T05:08:49.380Z,66.70
2022-12-09T05:11:18.107Z,67.06
2022-12-09T05:13:45.420Z,66.91
2022-12-09T05:16:16.871Z,67.11
2022-12-09T05:18:45.581Z,67.02
2022-12-09T05:21:15.242Z,67.51
2022-12-09T05:23:42.399Z,67.67
2022-12-09T05:26:12.553Z,67.61
2022-12-09T05:28:39.562Z,67.53
2022-12-09T05:31:10.063Z,67.46
2022-12-09T05:33:37.838Z,67.52
2022-12-09T05:36:08.805Z,67.45
2022-12-09T05:38:35.447Z,67.41
2022-12-09T05:41:02.281Z,67.28
2022-12-09T05:43:28.918Z,67.45
2022-12-09T05:45:55.989Z,67.31
2022-12-09T05:48:22.880Z,67.41
2022-12-09T05:50:59.559Z,68.00
2022-12-09T05:53:26.714Z,67.61
2022-12-09T05:55:54.134Z,67.45
2022-12-09T05:58:21.104Z,67.49
2022-12-09T06:00:48.509Z,67.47
2022-12-09T06:03:16.131Z,67.43
2022-12-09T06:05:43.307Z,67.68
2022-12-09T06:08:10.065Z,67.39
2022-12-09T06:10:41.400Z,67.63
2022-12-09T06:13:08.663Z,67.84
2022-12-09T06:15:35.894Z,67.67
2022-12-09T06:18:03.193Z,67.75
2022-12-09T06:20:30.604Z,67.75
2022-12-09T06:22:57.610Z,67.78
2022-12-09T06:25:24.211Z,67.77
2022-12-09T06:27:52.718Z,67.92
2022-12-09T06:30:19.797Z,68.03
2022-12-09T06:32:46.786Z,68.06
2022-12-09T06:35:14.163Z,68.03
2022-12-09T06:37:41.662Z,68.18
2022-12-09T06:40:09.287Z,67.59
2022-12-09T06:42:36.344Z,68.07
2022-12-09T06:45:03.906Z,67.77
2022-12-09T06:47:30.628Z,67.59
2022-12-09T06:50:04.358Z,67.90
2022-12-09T06:52:32.904Z,67.90
2022-12-09T06:54:59.442Z,67.87
2022-12-09T06:57:26.244Z,67.78
2022-12-09T06:59:53.028Z,67.99
2022-12-09T07:02:19.769Z,67.98
2022-12-09T07:04:47.054Z,67.96
2022-12-09T07:07:15.140Z,68.57
2022-12-09T07:09:41.932Z,68.61
2022-12-09T07:12:08.605Z,68.52
2022-12-09T07:14:36.374Z,68.34
2022-12-09T07:17:03.900Z,68.63
2022-12-09T07:19:31.354Z,68.56
2022-12-09T07:21:58.032Z,68.05
2022-12-09T07:24:25.411Z,68.35
2022-12-09T07:26:52.091Z,68.31
2022-12-09T07:29:19.503Z,68.19
2022-12-09T07:31:47.703Z,68.39
2022-12-09T07:34:14.523Z,68.41
2022-12-09T07:36:41.367Z,68.82
2022-12-09T07:39:12.100Z,68.78
2022-12-09T07:41:39.446Z,68.76
2022-12-09T07:44:06.228Z,69.22
2022-12-09T07:46:33.226Z,68.81
2022-12-09T07:49:02.775Z,69.26
2022-12-09T07:51:29.717Z,69.20
2022-12-09T07:53:56.486Z,69.09
2022-12-09T07:56:24.026Z,69.06
2022-12-09T07:58:53.342Z,69.24
2022-12-09T08:01:26.726Z,69.34
2022-12-09T08:03:54.202Z,69.21
2022-12-09T08:06:24.809Z,69.26
2022-12-09T08:08:51.986Z,69.54
2022-12-09T08:11:25.241Z,69.58
2022-12-09T08:13:52.601Z,69.31
2022-12-09T08:16:21.521Z,69.54
2022-12-09T08:18:50.449Z,69.16
2022-12-09T08:21:29.262Z,69.26
2022-12-09T08:23:58.272Z,69.03
2022-12-09T08:26:27.278Z,68.91
2022-12-09T08:28:54.158Z,68.79
2022-12-09T08:31:23.427Z,68.88
2022-12-09T08:33:50.995Z,68.88
2022-12-09T08:36:26.377Z,69.05
2022-12-09T08:38:53.088Z,68.93
2022-12-09T08:41:38.557Z,68.96
2022-12-09T08:44:09.822Z,68.95
2022-12-09T08:46:38.475Z,68.82
2022-12-09T08:49:06.401Z,68.93
2022-12-09T08:51:34.096Z,68.70
2022-12-09T08:54:01.418Z,68.62
2022-12-09T08:56:28.511Z,68.61
2022-12-09T08:58:55.829Z,68.53
2022-12-09T09:01:32.256Z,68.32
2022-12-09T09:04:05.532Z,68.32
2022-12-09T09:06:35.161Z,68.69
2022-12-09T09:09:02.024Z,68.54
2022-12-09T09:11:28.790Z,68.71
2022-12-09T09:13:55.387Z,68.62
2022-12-09T09:16:24.041Z,68.68
2022-12-09T09:18:51.138Z,68.61
2022-12-09T09:21:21.004Z,68.60
2022-12-09T09:23:48.220Z,68.60
2022-12-09T09:26:20.760Z,68.87
2022-12-09T09:28:48.061Z,68.77
2022-12-09T09:31:17.612Z,68.62
2022-12-09T09:33:45.117Z,68.68
2022-12-09T09:36:14.993Z,67.98
2022-12-09T09:38:41.801Z,68.11
2022-12-09T09:41:20.445Z,67.33
2022-12-09T09:43:47.836Z,67.29
2022-12-09T09:46:33.327Z,67.14
2022-12-09T09:49:01.589Z,67.28
2022-12-09T09:51:28.652Z,67.54
2022-12-09T09:53:55.539Z,67.85
2022-12-09T09:56:36.836Z,68.10
2022-12-09T09:59:16.183Z,68.36
2022-12-09T10:01:49.703Z,68.35
2022-12-09T10:04:59.052Z,68.50
2022-12-09T10:07:31.349Z,67.95
2022-12-09T10:10:17.806Z,68.36
2022-12-09T10:13:18.492Z,68.11
2022-12-09T10:16:14.434Z,68.15
2022-12-09T10:19:07.695Z,68.24
2022-12-09T10:21:41.080Z,68.28
2022-12-09T10:24:26.020Z,68.46
2022-12-09T10:27:12.650Z,68.27
2022-12-09T10:29:56.655Z,68.17
2022-12-09T10:32:26.773Z,68.10
2022-12-09T10:34:53.425Z,68.11
2022-12-09T10:37:35.215Z,68.09
2022-12-09T10:40:08.038Z,68.04
2022-12-09T10:43:13.793Z,68.14
2022-12-09T10:48:44.591Z,68.22
2022-12-09T10:51:25.975Z,68.50
2022-12-09T10:54:19.345Z,67.76
2022-12-09T10:57:29.044Z,67.95
2022-12-09T11:00:07.675Z,67.80
2022-12-09T11:02:34.840Z,67.30
2022-12-09T11:05:20.042Z,67.09
2022-12-09T11:07:51.558Z,66.68
2022-12-09T11:10:22.339Z,67.22
2022-12-09T11:12:57.307Z,66.92
2022-12-09T11:15:28.653Z,67.15
2022-12-09T11:18:08.013Z,67.03
2022-12-09T11:20:35.945Z,67.19
2022-12-09T11:23:05.399Z,66.94
2022-12-09T11:25:36.090Z,66.86
2022-12-09T11:28:30.560Z,66.55
2022-12-09T11:33:58.627Z,66.76
2022-12-09T11:36:30.980Z,66.90
2022-12-09T11:39:30.178Z,66.78
2022-12-09T11:42:18.589Z,66.95
2022-12-09T11:45:16.021Z,66.55
2022-12-09T11:48:23.040Z,66.66
2022-12-09T11:50:42.135Z,66.79
2022-12-09T11:53:11.500Z,66.44
2022-12-09T11:55:46.391Z,66.09
2022-12-09T11:58:21.187Z,66.05
2022-12-09T12:01:10.549Z,66.14
2022-12-09T12:03:42.089Z,66.11
2022-12-09T12:06:27.155Z,66.29
2022-12-09T12:09:04.499Z,65.62
2022-12-09T12:11:44.908Z,65.69
2022-12-09T12:14:16.791Z,66.07
2022-12-09T12:16:57.210Z,65.90
2022-12-09T12:19:40.620Z,65.37
2022-12-09T12:22:20.392Z,65.29
2022-12-09T12:25:18.310Z,65.54
2022-12-09T12:28:03.316Z,65.24
2022-12-09T12:30:39.708Z,65.10
2022-12-09T12:36:31.599Z,65.11
2022-12-09T12:38:57.874Z,65.37
2022-12-09T12:41:42.800Z,65.36
2022-12-09T12:44:56.244Z,65.12
2022-12-09T12:48:08.115Z,65.38
2022-12-09T12:53:16.153Z,65.53
2022-12-09T12:55:57.821Z,64.98
2022-12-09T12:59:02.745Z,64.71
2022-12-09T13:01:41.240Z,64.93
2022-12-09T13:04:31.547Z,64.99
2022-12-09T13:07:09.692Z,65.08
2022-12-09T13:09:48.232Z,65.30
2022-12-09T13:12:45.352Z,65.26
2022-12-09T13:15:18.184Z,65.24
2022-12-09T13:17:47.953Z,65.29
2022-12-09T13:20:44.081Z,65.19
2022-12-09T13:23:27.935Z,65.21
2022-12-09T13:26:24.888Z,65.03
2022-12-09T13:29:06.264Z,65.38
2022-12-09T13:31:38.021Z,65.06
2022-12-09T13:34:26.265Z,64.88
2022-12-09T13:36:52.667Z,65.06
2022-12-09T13:39:40.879Z,64.79
2022-12-09T13:42:46.350Z,64.79
2022-12-09T13:45:25.097Z,64.41
2022-12-09T13:47:55.563Z,64.92
2022-12-09T13:50:36.198Z,64.21
2022-12-09T13:53:07.457Z,64.73
2022-12-09T13:55:39.782Z,64.86
2022-12-09T13:58:06.079Z,64.80
2022-12-09T14:00:33.788Z,65.24
2022-12-09T14:03:12.194Z,64.84
2022-12-09T14:05:40.039Z,64.37
2022-12-09T14:08:20.908Z,63.16
2022-12-09T14:10:50.232Z,63.84
2022-12-09T14:13:29.511Z,63.37
2022-12-09T14:16:26.333Z,63.33
2022-12-09T14:18:52.880Z,63.92
2022-12-09T14:21:19.309Z,63.87
2022-12-09T14:24:07.235Z,63.36
2022-12-09T14:26:40.235Z,63.61
2022-12-09T14:29:06.555Z,63.71
2022-12-09T14:31:49.727Z,63.38
2022-12-09T14:34:25.688Z,63.79
2022-12-09T14:37:02.270Z,63.38
2022-12-09T14:39:36.900Z,63.54
2022-12-09T14:42:35.156Z,63.49
2022-12-09T14:45:01.488Z,63.90
2022-12-09T14:47:38.362Z,63.72
2022-12-09T14:50:12.912Z,63.94
2022-12-09T14:52:57.725Z,63.69
2022-12-09T14:55:26.146Z,64.04
2022-12-09T14:57:55.781Z,64.07
2022-12-09T15:00:40.703Z,63.91
2022-12-09T15:03:44.921Z,63.94
2022-12-09T15:06:16.735Z,64.10
2022-12-09T15:08:43.254Z,64.20
2022-12-09T15:11:16.572Z,64.19
2022-12-09T15:13:46.274Z,64.54
2022-12-09T15:16:16.303Z,64.21
2022-12-09T15:18:44.696Z,64.17
2022-12-09T15:21:22.380Z,64.38
2022-12-09T15:23:48.824Z,64.43
2022-12-09T15:26:22.111Z,64.27
2022-12-09T15:28:50.440Z,64.26
2022-12-09T15:31:23.051Z,64.08
2022-12-09T15:33:52.072Z,64.06
2022-12-09T15:36:27.446Z,63.96
2022-12-09T15:39:01.167Z,63.83
2022-12-09T15:41:53.968Z,63.97
2022-12-09T15:44:24.529Z,63.82
2022-12-09T15:46:52.814Z,63.81
2022-12-09T15:49:25.167Z,63.99
2022-12-09T15:51:55.219Z,64.12
2022-12-09T15:54:26.935Z,63.65
2022-12-09T15:56:59.818Z,63.90
2022-12-09T15:59:31.455Z,64.08
2022-12-09T16:01:59.287Z,63.56
2022-12-09T16:04:34.947Z,63.62
2022-12-09T16:07:06.836Z,63.79
2022-12-09T16:09:35.230Z,63.91
2022-12-09T16:12:02.060Z,63.86
2022-12-09T16:14:44.275Z,64.14
2022-12-09T16:17:21.692Z,64.07
2022-12-09T16:19:48.257Z,64.06
2022-12-09T16:22:14.835Z,64.33
2022-12-09T16:25:14.615Z,65.13
2022-12-09T16:27:45.924Z,64.76
2022-12-09T16:30:14.652Z,65.09
2022-12-09T16:32:47.875Z,65.37
2022-12-09T16:35:17.407Z,65.67
2022-12-09T16:38:09.659Z,65.64
2022-12-09T16:40:45.424Z,65.70
2022-12-09T16:43:17.756Z,66.14
2022-12-09T16:46:16.733Z,66.12
2022-12-09T16:48:43.267Z,65.70
2022-12-09T16:51:13.980Z,65.72
2022-12-09T16:53:46.313Z,65.57
2022-12-09T16:56:33.573Z,66.08
2022-12-09T16:59:00.030Z,65.57
2022-12-09T17:01:35.173Z,66.00
2022-12-09T17:04:24.250Z,65.34
2022-12-09T17:06:50.933Z,65.71
2022-12-09T17:09:17.472Z,65.64
2022-12-09T17:11:48.573Z,65.66
2022-12-09T17:14:15.657Z,65.36
2022-12-09T17:16:42.116Z,65.34
2022-12-09T17:19:08.649Z,65.64
2022-12-09T17:21:35.014Z,65.55
2022-12-09T17:24:01.545Z,65.67
2022-12-09T17:26:27.882Z,65.55
2022-12-09T17:28:59.819Z,66.12
2022-12-09T17:31:28.179Z,66.11
2022-12-09T17:33:57.155Z,66.02
2022-12-09T17:36:24.766Z,65.42
2022-12-09T17:38:51.485Z,65.88
2022-12-09T17:41:23.521Z,66.01
2022-12-09T17:43:50.218Z,65.69
2022-12-09T17:46:16.782Z,65.75
2022-12-09T17:48:43.482Z,66.11
2022-12-09T17:51:12.491Z,65.84
2022-12-09T17:53:40.798Z,66.39
2022-12-09T17:56:13.014Z,65.83
2022-12-09T17:58:39.851Z,66.30
2022-12-09T18:01:17.484Z,65.90
2022-12-09T18:04:02.888Z,66.17
2022-12-09T18:06:34.536Z,66.07
2022-12-09T18:09:02.981Z,65.92
2022-12-09T18:11:29.575Z,66.22
2022-12-09T18:13:56.095Z,66.18
2022-12-09T18:16:22.674Z,66.23
2022-12-09T18:18:49.708Z,66.06
2022-12-09T18:21:16.797Z,66.07
2022-12-09T18:23:43.724Z,65.92
2022-12-09T18:26:13.479Z,66.10
2022-12-09T18:28:40.156Z,66.17
2022-12-09T18:31:08.133Z,66.00
2022-12-09T18:33:34.919Z,66.11
2022-12-09T18:36:06.096Z,65.98
2022-12-09T18:38:32.613Z,65.64
2022-12-09T18:41:01.623Z,65.55
2022-12-09T18:43:37.960Z,65.92
2022-12-09T18:46:25.915Z,65.82
2022-12-09T18:49:05.492Z,65.93
2022-12-09T18:51:32.669Z,65.65
2022-12-09T18:54:00.148Z,65.78
2022-12-09T18:56:27.736Z,65.49
2022-12-09T18:59:10.220Z,65.67
2022-12-09T19:01:40.330Z,65.73
2022-12-09T19:04:11.272Z,65.60
2022-12-09T19:06:39.325Z,65.66
2022-12-09T19:09:08.722Z,65.68
2022-12-09T19:11:37.400Z,66.01
2022-12-09T19:14:05.490Z,65.82
2022-12-09T19:16:32.385Z,65.95
2022-12-09T19:19:03.838Z,65.86
2022-12-09T19:21:34.357Z,65.62
2022-12-09T19:24:00.664Z,65.74
2022-12-09T19:26:31.805Z,65.73
2022-12-09T19:29:01.026Z,65.90
2022-12-09T19:31:30.167Z,66.18
2022-12-09T19:34:01.698Z,66.02
2022-12-09T19:36:29.933Z,65.75
2022-12-09T19:38:58.069Z,66.26
2022-12-09T19:41:24.419Z,66.21
2022-12-09T19:43:55.345Z,66.03
2022-12-09T19:46:22.256Z,66.39
2022-12-09T19:48:48.858Z,65.93
2022-12-09T19:51:17.166Z,66.26
2022-12-09T19:53:43.869Z,66.13
2022-12-09T19:56:16.516Z,65.84
2022-12-09T19:58:43.830Z,66.12
2022-12-09T20:01:19.473Z,65.75
2022-12-09T20:03:47.902Z,65.76
2022-12-09T20:06:16.224Z,65.77
2022-12-09T20:08:44.760Z,65.84
2022-12-09T20:11:23.776Z,65.63
2022-12-09T20:13:51.052Z,65.50
2022-12-09T20:16:20.333Z,65.43
2022-12-09T20:18:48.462Z,65.13
2022-12-09T20:21:17.799Z,64.94
2022-12-09T20:23:45.440Z,65.36
2022-12-09T20:26:32.507Z,64.62
2022-12-09T20:29:02.858Z,64.72
2022-12-09T20:31:31.590Z,64.95
2022-12-09T20:34:01.723Z,64.49
2022-12-09T20:36:30.695Z,64.09
2022-12-09T20:39:00.080Z,63.94
2022-12-09T20:41:28.017Z,63.90
2022-12-09T20:43:56.485Z,63.96
2022-12-09T20:46:29.599Z,63.40
2022-12-09T20:48:57.055Z,64.13
2022-12-09T20:51:34.801Z,63.58
2022-12-09T20:54:02.013Z,63.54
2022-12-09T20:56:29.840Z,63.52
2022-12-09T20:58:57.135Z,63.41
2022-12-09T21:01:31.174Z,63.09
2022-12-09T21:03:58.922Z,63.60
2022-12-09T21:06:29.340Z,63.49
2022-12-09T21:08:57.334Z,63.60
2022-12-09T21:11:25.162Z,63.63
2022-12-09T21:13:54.291Z,63.66
2022-12-09T21:16:25.244Z,63.56
2022-12-09T21:18:56.929Z,63.38
2022-12-09T21:21:25.253Z,63.61
2022-12-09T21:23:54.228Z,63.65
2022-12-09T21:26:22.710Z,63.13
2022-12-09T21:28:49.102Z,62.86
2022-12-09T21:31:22.696Z,62.82
2022-12-09T21:33:51.206Z,62.83
2022-12-09T21:36:24.052Z,62.59
2022-12-09T21:38:51.324Z,62.97
2022-12-09T21:41:21.163Z,63.00
2022-12-09T21:43:47.815Z,63.02
2022-12-09T21:46:20.585Z,62.91
2022-12-09T21:48:52.063Z,63.01
2022-12-09T21:51:20.201Z,62.96
2022-12-09T21:53:47.229Z,63.01
2022-12-09T21:56:22.165Z,63.08
2022-12-09T21:58:50.272Z,63.14
2022-12-09T22:01:28.710Z,62.72
2022-12-09T22:03:56.646Z,63.35
2022-12-09T22:06:23.806Z,63.01
2022-12-09T22:08:50.757Z,63.23
2022-12-09T22:11:20.714Z,63.21
2022-12-09T22:13:47.641Z,63.10
2022-12-09T22:16:26.883Z,62.05
2022-12-09T22:18:55.191Z,62.74
2022-12-09T22:21:25.484Z,62.83
2022-12-09T22:23:54.215Z,62.71
2022-12-09T22:26:21.231Z,63.03
2022-12-09T22:28:47.750Z,62.86
2022-12-09T22:31:23.211Z,62.10
2022-12-09T22:33:51.439Z,62.90
2022-12-09T22:36:19.035Z,63.02
2022-12-09T22:38:46.503Z,63.03
2022-12-09T22:41:15.719Z,62.91
2022-12-09T22:43:43.283Z,62.69
2022-12-09T22:46:12.896Z,62.74
2022-12-09T22:48:40.388Z,62.83
2022-12-09T22:51:10.680Z,62.50
2022-12-09T22:53:37.224Z,62.78
2022-12-09T22:56:04.133Z,62.79
2022-12-09T22:58:30.943Z,62.67
2022-12-09T23:00:57.357Z,62.58
2022-12-09T23:03:24.408Z,62.83
2022-12-09T23:05:50.980Z,62.46
2022-12-09T23:08:17.788Z,62.71
2022-12-09T23:10:44.161Z,62.62
2022-12-09T23:13:10.627Z,62.71
2022-12-09T23:15:37.240Z,62.93
2022-12-09T23:18:03.940Z,62.52
2022-12-09T23:20:30.281Z,62.25
2022-12-09T23:22:56.580Z,61.94
2022-12-09T23:25:23.126Z,62.14
2022-12-09T23:27:49.427Z,62.14
2022-12-09T23:30:15.840Z,61.91
2022-12-09T23:32:42.574Z,62.43
2022-12-09T23:35:09.414Z,62.18
2022-12-09T23:37:35.720Z,61.92
2022-12-09T23:40:02.081Z,62.25
2022-12-09T23:42:28.433Z,62.45
2022-12-09T23:44:54.751Z,62.54
2022-12-09T23:47:21.105Z,62.61
2022-12-09T23:49:47.423Z,62.64
2022-12-09T23:52:13.731Z,62.35
2022-12-09T23:54:40.146Z,62.35
2022-12-09T23:57:06.539Z,62.71
2022-12-09T23:59:32.852Z,62.36
